Time;durP1;ratioP1;P1;durP2;ratioP2;P2;SDS_P1;SDS_P2;PMS_P1;PMS_P2;Temp;Humidity;BMP_temperature;BMP_pressure;BME280_temperature;BME280_humidity;BME280_pressure;Samples;Min_cycle;Max_cycle;Signal;HPM_P1;HPM_P2
2022/01/10 00:00:33;;;;;;;7.80;6.50;;;;;;;1.90;100.00;151855.16;4993701;28;20794;-76
2022/01/10 00:03:10;;;;;;;10.33;7.30;;;;;;;1.90;100.00;151855.16;4994095;28;20439;-76
2022/01/10 00:05:46;;;;;;;9.40;7.60;;;;;;;1.91;100.00;151857.69;4993140;28;20562;-76
2022/01/10 00:08:21;;;;;;;8.53;6.70;;;;;;;1.92;100.00;151860.28;4993320;28;20499;-76
2022/01/10 00:10:57;;;;;;;8.43;7.40;;;;;;;1.91;100.00;151857.69;4990984;28;20454;-76
2022/01/10 00:13:32;;;;;;;8.73;7.53;;;;;;;1.92;100.00;151858.97;4978253;28;20497;-76
2022/01/10 00:16:08;;;;;;;10.60;8.27;;;;;;;1.91;100.00;151857.69;4991517;28;20456;-76
2022/01/10 00:18:45;;;;;;;9.50;7.73;;;;;;;1.90;100.00;151855.16;4978587;28;20796;-76
2022/01/10 00:21:21;;;;;;;11.27;8.70;;;;;;;1.89;100.00;151851.25;4993957;28;20454;-76
2022/01/10 00:23:56;;;;;;;8.80;7.87;;;;;;;1.89;100.00;151852.56;4993626;28;20443;-76
2022/01/10 00:26:32;;;;;;;9.77;7.83;;;;;;;1.89;100.00;151852.56;4993026;28;20819;-76
2022/01/10 00:29:08;;;;;;;8.60;6.50;;;;;;;1.90;100.00;151855.16;4978895;28;20534;-76
2022/01/10 00:31:43;;;;;;;8.60;6.80;;;;;;;1.91;100.00;151857.69;4994244;28;20550;-76
2022/01/10 00:34:20;;;;;;;7.77;6.70;;;;;;;1.91;100.00;151856.44;4980870;28;20450;-76
2022/01/10 00:36:56;;;;;;;9.70;6.60;;;;;;;1.90;100.00;151855.16;4991183;28;20445;-76
2022/01/10 00:39:32;;;;;;;10.10;6.10;;;;;;;1.90;100.00;151855.16;4978905;28;20444;-76
2022/01/10 00:42:07;;;;;;;7.97;6.30;;;;;;;1.89;100.00;151852.56;4978736;28;20452;-76
2022/01/10 00:44:49;;;;;;;7.07;6.37;;;;;;;1.89;100.00;151852.56;4994486;28;20440;-76
2022/01/10 00:47:25;;;;;;;10.37;5.53;;;;;;;1.90;100.00;151855.16;4965060;28;20545;-76
2022/01/10 00:50:02;;;;;;;9.70;6.17;;;;;;;1.89;100.00;151852.56;4974751;28;20447;-76
2022/01/10 00:52:37;;;;;;;6.60;5.77;;;;;;;1.89;100.00;151851.25;4959140;28;20460;-76
2022/01/10 00:55:13;;;;;;;7.40;6.07;;;;;;;1.90;100.00;151855.16;4982386;28;20445;-76
2022/01/10 00:57:49;;;;;;;7.70;5.90;;;;;;;1.92;100.00;151858.97;4975301;28;20785;-76
2022/01/10 01:00:25;;;;;;;5.87;5.33;;;;;;;1.92;100.00;151858.97;4974215;28;20436;-76
2022/01/10 01:03:01;;;;;;;7.10;5.67;;;;;;;1.93;100.00;151862.88;4959319;28;20439;-76
2022/01/10 01:05:41;;;;;;;7.23;5.80;;;;;;;1.93;100.00;151862.88;4961108;28;20462;-75
2022/01/10 01:08:17;;;;;;;7.23;5.13;;;;;;;1.94;100.00;151864.09;4980411;28;20503;-75
2022/01/10 01:13:53;;;;;;;4.93;4.43;;;;;;;1.95;100.00;151866.69;4977966;28;20778;-75
2022/01/10 01:16:43;;;;;;;5.30;4.13;;;;;;;1.94;100.00;151865.41;4993174;28;20842;-75
2022/01/10 01:25:06;;;;;;;5.97;4.03;;;;;;;1.95;100.00;151868.00;4981570;28;20487;-75
2022/01/10 01:27:43;;;;;;;4.87;3.90;;;;;;;1.95;100.00;151868.00;4958413;28;20452;-75
2022/01/10 01:30:19;;;;;;;6.30;4.30;;;;;;;1.98;100.00;151875.72;4975629;28;20430;-75
2022/01/10 01:32:55;;;;;;;5.60;4.37;;;;;;;1.98;100.00;151875.72;4992995;28;20439;-76
2022/01/10 01:35:32;;;;;;;6.50;3.83;;;;;;;1.98;100.00;151875.72;4976859;28;20440;-75
2022/01/10 01:38:09;;;;;;;8.47;3.90;;;;;;;2.01;100.00;151882.13;4966311;28;20435;-75
2022/01/10 01:40:51;;;;;;;4.63;3.90;;;;;;;2.00;100.00;151880.84;4958051;28;20461;-75
2022/01/10 01:43:27;;;;;;;6.43;3.60;;;;;;;2.02;100.00;151885.97;4974119;28;20801;-75
2022/01/10 01:46:03;;;;;;;6.57;4.60;;;;;;;2.05;100.00;151892.41;4972867;28;20480;-75
2022/01/10 01:48:38;;;;;;;5.53;3.97;;;;;;;2.06;100.00;151896.28;4969997;28;20474;-76
2022/01/10 01:51:15;;;;;;;6.30;4.40;;;;;;;2.06;100.00;151896.28;4977820;28;20455;-75
2022/01/10 01:53:52;;;;;;;5.43;4.17;;;;;;;2.05;100.00;151893.69;4976133;28;20505;-75
2022/01/10 01:56:29;;;;;;;4.77;4.00;;;;;;;2.05;100.00;151893.69;4972683;28;20438;-75
2022/01/10 01:59:05;;;;;;;5.27;4.40;;;;;;;2.06;100.00;151896.28;4983489;28;20509;-75
2022/01/10 02:01:40;;;;;;;6.63;3.90;;;;;;;2.05;100.00;151893.69;4977049;28;20447;-75
2022/01/10 02:04:15;;;;;;;6.13;3.67;;;;;;;2.06;100.00;151896.28;4968546;28;20451;-75
2022/01/10 02:06:53;;;;;;;4.63;3.73;;;;;;;2.07;100.00;151898.81;4972369;28;20483;-75
2022/01/10 02:09:31;;;;;;;6.57;4.00;;;;;;;2.08;100.00;151901.41;4974919;28;20468;-75
2022/01/10 02:12:07;;;;;;;5.90;4.00;;;;;;;2.07;100.00;151898.81;4973853;28;20945;-75
2022/01/10 02:14:43;;;;;;;6.70;4.20;;;;;;;2.11;100.00;151909.13;4976768;28;20436;-75
2022/01/10 02:17:22;;;;;;;8.53;5.10;;;;;;;2.14;100.00;151916.84;4957449;28;20452;-75
2022/01/10 02:20:05;;;;;;;6.10;4.40;;;;;;;2.15;100.00;151919.41;4979795;28;20446;-75
2022/01/10 02:22:42;;;;;;;6.70;4.73;;;;;;;2.15;100.00;151918.09;4977328;28;20453;-75
2022/01/10 02:25:48;;;;;;;9.17;5.60;;;;;;;2.16;100.00;151920.69;4976746;28;20470;-75
2022/01/10 02:28:26;;;;;;;7.10;5.23;;;;;;;2.17;100.00;151923.28;4976597;28;20439;-75
2022/01/10 02:31:02;;;;;;;6.47;4.20;;;;;;;2.14;100.00;151916.84;4991925;28;20448;-75
2022/01/10 02:33:38;;;;;;;6.93;5.33;;;;;;;2.13;100.00;151914.25;4989521;28;20520;-75
2022/01/10 02:36:22;;;;;;;5.10;4.57;;;;;;;2.13;100.00;151912.97;4992312;28;20423;-75
2022/01/10 02:38:59;;;;;;;8.90;5.17;;;;;;;2.12;100.00;151911.69;4992030;28;20446;-75
2022/01/10 02:41:38;;;;;;;7.80;6.23;;;;;;;2.09;100.00;151903.94;4976673;28;20452;-75
2022/01/10 02:44:16;;;;;;;7.70;5.27;;;;;;;2.14;100.00;151916.84;4976619;28;20474;-76
2022/01/10 02:46:51;;;;;;;6.90;5.40;;;;;;;2.12;100.00;151911.69;4976568;28;20497;-75
2022/01/10 02:49:39;;;;;;;8.50;6.40;;;;;;;2.08;100.00;151901.41;4967903;28;20464;-75
2022/01/10 02:52:16;;;;;;;10.17;6.97;;;;;;;2.06;100.00;151896.28;4972810;28;20443;-75
2022/01/10 02:54:53;;;;;;;7.93;6.30;;;;;;;2.08;100.00;151900.13;4996221;28;20460;-76
2022/01/10 02:57:29;;;;;;;7.53;6.20;;;;;;;2.10;100.00;151905.25;4980717;28;20678;-75
2022/01/10 03:00:10;;;;;;;9.03;6.23;;;;;;;2.09;100.00;151903.94;4995328;28;20777;-75
2022/01/10 03:02:49;;;;;;;8.43;6.20;;;;;;;2.07;100.00;151898.81;4979345;28;20938;-75
2022/01/10 03:05:26;;;;;;;9.20;5.80;;;;;;;2.08;100.00;151901.41;4979719;28;20436;-75
2022/01/10 03:08:03;;;;;;;8.80;6.07;;;;;;;2.09;100.00;151903.94;4976690;28;20874;-75
2022/01/10 03:10:41;;;;;;;9.83;6.70;;;;;;;2.11;100.00;151907.84;4977789;28;20462;-75
2022/01/10 03:13:16;;;;;;;8.53;6.47;;;;;;;2.10;100.00;151906.53;4995212;28;20452;-76
2022/01/10 03:15:52;;;;;;;9.27;5.90;;;;;;;2.11;100.00;151909.13;4979514;28;20444;-75
2022/01/10 03:18:27;;;;;;;7.77;6.30;;;;;;;2.12;100.00;151911.69;4979733;28;20948;-75
2022/01/10 03:21:03;;;;;;;7.70;6.07;;;;;;;2.13;100.00;151914.25;4979633;28;20455;-75
2022/01/10 03:23:40;;;;;;;7.20;5.53;;;;;;;2.13;100.00;151914.25;4980408;28;20438;-75
2022/01/10 03:26:16;;;;;;;8.33;5.33;;;;;;;2.13;100.00;151912.97;4979215;28;20466;-76
2022/01/10 03:28:52;;;;;;;6.83;5.10;;;;;;;2.14;100.00;151916.84;4994176;28;20531;-75
2022/01/10 03:31:28;;;;;;;6.80;4.97;;;;;;;2.15;100.00;151919.41;4979253;28;20459;-75
2022/01/10 03:34:06;;;;;;;6.97;4.53;;;;;;;2.15;100.00;151919.41;4979846;28;20448;-75
2022/01/10 03:36:42;;;;;;;7.73;4.17;;;;;;;2.15;100.00;151919.41;4978688;28;20931;-75
2022/01/10 03:39:19;;;;;;;5.70;4.90;;;;;;;2.18;100.00;151925.81;4979557;28;20448;-75
2022/01/10 03:41:55;;;;;;;7.27;5.10;;;;;;;2.19;100.00;151929.72;4978111;28;20536;-75
2022/01/10 03:44:31;;;;;;;6.80;4.90;;;;;;;2.21;100.00;151934.84;4978991;28;20450;-75
2022/01/10 03:47:06;;;;;;;8.93;5.90;;;;;;;2.22;100.00;151937.44;4979702;28;20566;-76
2022/01/10 03:49:42;;;;;;;7.53;4.83;;;;;;;2.21;100.00;151934.84;4979754;28;20455;-76
2022/01/10 03:52:17;;;;;;;6.90;5.30;;;;;;;2.22;100.00;151936.13;4975763;28;20453;-75
2022/01/10 03:54:55;;;;;;;7.30;5.20;;;;;;;2.21;100.00;151934.84;4976568;28;20463;-75
2022/01/10 03:57:30;;;;;;;11.07;5.93;;;;;;;2.22;100.00;151937.44;4972997;28;20862;-75
2022/01/10 04:00:09;;;;;;;9.27;5.90;;;;;;;2.22;100.00;151937.44;4959759;28;20455;-75
2022/01/10 04:02:56;;;;;;;7.83;5.70;;;;;;;2.23;100.00;151938.66;4994145;28;20487;-75
2022/01/10 04:05:37;;;;;;;7.30;5.73;;;;;;;2.23;100.00;151939.97;4978280;28;21038;-75
2022/01/10 04:08:13;;;;;;;7.63;5.30;;;;;;;2.25;100.00;151943.84;4979082;28;20466;-75
2022/01/10 04:10:49;;;;;;;6.40;5.73;;;;;;;2.21;100.00;151934.84;4983656;28;20483;-76
2022/01/10 04:13:25;;;;;;;8.17;6.87;;;;;;;2.22;100.00;151936.13;4974530;28;20755;-75
2022/01/10 04:16:01;;;;;;;9.10;7.03;;;;;;;2.21;100.00;151933.53;4976811;28;20549;-76
2022/01/10 04:18:36;;;;;;;9.27;7.30;;;;;;;2.25;100.00;151943.84;4993757;28;20452;-75
2022/01/10 04:21:12;;;;;;;14.80;8.27;;;;;;;2.25;100.00;151945.09;4992814;28;20462;-75
2022/01/10 04:23:48;;;;;;;12.00;8.43;;;;;;;2.27;100.00;151948.97;4993828;28;20454;-75
2022/01/10 04:26:25;;;;;;;9.17;7.17;;;;;;;2.38;100.00;151978.53;4978647;28;20485;-75
2022/01/10 04:29:00;;;;;;;11.67;8.07;;;;;;;2.41;100.00;151986.25;4992823;28;20478;-75
2022/01/10 04:31:36;;;;;;;9.50;7.47;;;;;;;2.32;100.00;151963.13;4986531;28;20546;-75
2022/01/10 04:34:12;;;;;;;9.00;7.23;;;;;;;2.26;100.00;151946.41;4973983;28;20429;-76
2022/01/10 04:36:48;;;;;;;11.57;7.33;;;;;;;2.22;100.00;151936.13;4967321;28;20816;-75
2022/01/10 04:39:23;;;;;;;16.53;8.30;;;;;;;2.23;100.00;151938.66;4977862;28;20450;-75
2022/01/10 04:42:00;;;;;;;10.03;7.90;;;;;;;2.23;100.00;151939.97;4978965;28;20495;-75
2022/01/10 04:44:36;;;;;;;19.33;9.03;;;;;;;2.23;100.00;151939.97;4971250;28;20839;-75
2022/01/10 04:47:12;;;;;;;12.50;8.03;;;;;;;2.24;100.00;151942.56;4959066;28;20479;-75
2022/01/10 04:50:06;;;;;;;14.53;8.93;;;;;;;2.18;100.00;151925.81;4970694;28;20451;-75
2022/01/10 04:52:44;;;;;;;12.70;8.20;;;;;;;2.19;100.00;151929.72;4958512;28;20463;-75
2022/01/10 04:55:22;;;;;;;13.33;7.60;;;;;;;2.21;100.00;151933.53;4972975;28;20846;-75
2022/01/10 04:57:59;;;;;;;15.20;8.43;;;;;;;2.20;100.00;151930.94;4975247;28;20446;-75
2022/01/10 05:00:37;;;;;;;11.57;7.43;;;;;;;2.27;100.00;151948.97;4977736;28;20436;-76
2022/01/10 05:03:13;;;;;;;10.70;7.77;;;;;;;2.23;100.00;151939.97;4992657;28;20428;-75
2022/01/10 05:05:53;;;;;;;11.07;7.50;;;;;;;2.21;100.00;151934.84;4976791;28;20479;-75
2022/01/10 05:08:29;;;;;;;11.17;7.87;;;;;;;2.29;100.00;151954.13;4976570;28;20450;-75
2022/01/10 05:11:05;;;;;;;11.43;6.70;;;;;;;2.28;100.00;151952.81;4973427;28;20453;-75
2022/01/10 05:13:42;;;;;;;15.57;7.53;;;;;;;2.25;100.00;151943.84;4977082;28;20894;-75
2022/01/10 05:16:19;;;;;;;9.77;7.47;;;;;;;2.27;100.00;151948.97;4977346;28;20812;-75
2022/01/10 05:18:54;;;;;;;11.07;8.73;;;;;;;2.25;100.00;151943.84;4976240;28;20529;-75
2022/01/10 05:21:30;;;;;;;9.70;7.67;;;;;;;2.32;100.00;151963.13;4977711;28;20939;-75
2022/01/10 05:24:06;;;;;;;10.17;6.67;;;;;;;2.26;100.00;151946.41;4989946;28;20453;-75
2022/01/10 05:26:42;;;;;;;14.93;8.37;;;;;;;2.27;100.00;151950.28;4977347;28;20479;-75
2022/01/10 05:29:22;;;;;;;10.63;8.23;;;;;;;2.21;100.00;151934.84;4992549;28;20416;-75
2022/01/10 05:31:58;;;;;;;10.70;8.00;;;;;;;2.23;100.00;151939.97;4977315;28;20434;-75
2022/01/10 05:34:45;;;;;;;11.10;8.17;;;;;;;2.21;100.00;151933.53;4970834;28;20439;-75
2022/01/10 05:37:21;;;;;;;9.80;7.40;;;;;;;2.19;100.00;151929.72;5006945;28;20447;-75
2022/01/10 05:39:56;;;;;;;9.93;7.40;;;;;;;2.21;100.00;151934.84;4977357;28;20487;-75
2022/01/10 05:42:32;;;;;;;12.50;8.57;;;;;;;2.22;100.00;151937.44;4976441;28;20459;-75
2022/01/10 05:45:10;;;;;;;11.67;8.50;;;;;;;2.28;100.00;151952.81;4976527;28;20443;-75
2022/01/10 05:47:47;;;;;;;11.33;7.87;;;;;;;2.24;100.00;151941.25;4976872;28;20495;-75
2022/01/10 05:50:33;;;;;;;10.40;8.27;;;;;;;2.21;100.00;151934.84;4965225;28;20448;-76
2022/01/10 05:53:12;;;;;;;11.67;8.23;;;;;;;2.22;100.00;151937.44;4989763;28;20451;-75
2022/01/10 05:55:48;;;;;;;11.63;9.10;;;;;;;2.18;100.00;151927.13;4991089;28;20947;-75
2022/01/10 05:58:26;;;;;;;11.73;7.40;;;;;;;2.13;100.00;151912.97;4976775;28;20433;-75
2022/01/10 06:01:03;;;;;;;13.40;10.07;;;;;;;2.12;100.00;151910.44;4976664;28;20448;-75
2022/01/10 06:03:38;;;;;;;14.33;9.00;;;;;;;2.14;100.00;151915.56;4991829;28;20442;-75
2022/01/10 06:06:18;;;;;;;11.97;8.83;;;;;;;2.18;100.00;151927.13;4976283;28;20477;-76
2022/01/10 06:09:08;;;;;;;12.43;8.60;;;;;;;2.23;100.00;151938.66;4989932;28;20814;-75
2022/01/10 06:11:46;;;;;;;12.60;9.40;;;;;;;2.21;100.00;151934.84;4973804;28;20841;-75
2022/01/10 06:14:24;;;;;;;13.17;8.27;;;;;;;2.19;100.00;151928.41;4973685;28;20547;-77
2022/01/10 06:17:01;;;;;;;12.23;8.50;;;;;;;2.22;100.00;151937.44;4957300;28;20446;-75
2022/01/10 06:19:37;;;;;;;12.80;8.90;;;;;;;2.29;100.00;151955.41;4984941;28;20442;-74
2022/01/10 06:22:13;;;;;;;13.20;8.53;;;;;;;2.33;100.00;151965.66;4962437;28;20785;-75
2022/01/10 06:24:48;;;;;;;15.17;10.20;;;;;;;2.27;100.00;151950.28;4973370;28;20441;-75
2022/01/10 06:27:24;;;;;;;17.70;10.07;;;;;;;2.24;100.00;151942.56;4980451;28;20479;-75
2022/01/10 06:30:00;;;;;;;15.60;9.27;;;;;;;2.23;100.00;151938.66;4980053;28;20532;-75
2022/01/10 06:32:40;;;;;;;15.10;10.80;;;;;;;2.24;100.00;151942.56;4989852;28;20870;-75
2022/01/10 06:35:18;;;;;;;19.33;10.13;;;;;;;2.21;100.00;151934.84;4974222;28;20446;-75
2022/01/10 06:37:54;;;;;;;13.93;10.30;;;;;;;2.18;100.00;151927.13;4960863;28;20509;-75
2022/01/10 06:40:30;;;;;;;19.80;11.63;;;;;;;2.18;100.00;151927.13;4974513;28;20441;-75
2022/01/10 06:43:05;;;;;;;17.27;11.77;;;;;;;2.22;100.00;151937.44;4993348;28;20882;-75
2022/01/10 06:45:43;;;;;;;17.47;10.20;;;;;;;2.25;100.00;151943.84;4995976;28;20467;-75
2022/01/10 06:48:20;;;;;;;18.00;11.57;;;;;;;2.29;100.00;151955.41;4993891;28;20469;-75
2022/01/10 06:50:56;;;;;;;17.13;13.27;;;;;;;2.25;100.00;151945.09;4973159;28;20560;-75
2022/01/10 06:53:32;;;;;;;17.23;13.07;;;;;;;2.25;100.00;151945.09;4979812;28;20449;-74
2022/01/10 06:56:09;;;;;;;20.77;13.43;;;;;;;2.31;100.00;151960.53;4998739;28;20453;-75
2022/01/10 06:58:47;;;;;;;19.53;12.40;;;;;;;2.33;100.00;151964.44;4991354;28;20786;-74
2022/01/10 07:01:28;;;;;;;22.73;12.83;;;;;;;2.25;100.00;151945.09;4978211;28;20791;-75
2022/01/10 07:04:05;;;;;;;20.90;10.90;;;;;;;2.20;100.00;151930.94;4993447;28;20444;-75
2022/01/10 07:06:42;;;;;;;16.50;11.17;;;;;;;2.17;100.00;151924.53;4988780;28;20467;-75
2022/01/10 07:09:24;;;;;;;21.43;13.37;;;;;;;2.17;100.00;151924.53;4993437;28;20442;-75
2022/01/10 07:12:16;;;;;;;20.23;12.07;;;;;;;2.26;100.00;151947.69;4974210;28;20458;-75
2022/01/10 07:15:02;;;;;;;19.27;11.60;;;;;;;2.22;100.00;151937.44;4965230;28;20680;-75
2022/01/10 07:17:38;;;;;;;20.17;12.80;;;;;;;2.19;100.00;151928.41;4975768;28;20479;-75
2022/01/10 07:20:17;;;;;;;22.13;12.20;;;;;;;2.14;100.00;151916.84;4979266;28;20469;-75
2022/01/10 07:22:54;;;;;;;21.07;12.93;;;;;;;2.16;100.00;151920.69;4978886;28;20891;-75
2022/01/10 07:25:31;;;;;;;22.00;13.77;;;;;;;2.16;100.00;151921.97;4978725;28;20910;-75
2022/01/10 07:28:06;;;;;;;21.80;13.57;;;;;;;2.28;100.00;151951.53;4976458;28;20489;-75
2022/01/10 07:30:42;;;;;;;20.10;12.40;;;;;;;2.24;100.00;151942.56;4959960;28;20444;-75
2022/01/10 07:33:18;;;;;;;24.93;16.03;;;;;;;2.26;100.00;151947.69;4976378;28;20874;-75
2022/01/10 07:35:55;;;;;;;19.10;12.70;;;;;;;2.27;100.00;151948.97;4981543;28;20450;-75
2022/01/10 07:38:35;;;;;;;25.37;15.17;;;;;;;2.23;100.00;151939.97;4958963;28;20446;-75
2022/01/10 07:41:11;;;;;;;25.37;15.80;;;;;;;2.23;100.00;151939.97;4975485;28;20450;-75
2022/01/10 07:43:46;;;;;;;16.90;11.40;;;;;;;2.25;100.00;151945.09;5000994;28;20458;-75
2022/01/10 07:46:23;;;;;;;21.77;15.33;;;;;;;2.25;100.00;151945.09;4984219;28;20995;-75
2022/01/10 07:48:59;;;;;;;20.13;12.10;;;;;;;2.20;100.00;151932.25;4973658;28;20482;-75
2022/01/10 07:51:36;;;;;;;18.73;12.73;;;;;;;2.20;100.00;151932.25;4989437;28;20551;-75
2022/01/10 07:54:11;;;;;;;19.20;12.80;;;;;;;2.26;100.00;151947.69;4990097;28;20449;-76
2022/01/10 07:56:47;;;;;;;22.30;12.00;;;;;;;2.19;100.00;151929.72;4990228;28;20536;-75
2022/01/10 07:59:23;;;;;;;18.90;11.40;;;;;;;2.22;100.00;151936.13;4990924;28;20936;-75
2022/01/10 08:01:58;;;;;;;19.33;12.60;;;;;;;2.20;100.00;151932.25;4975927;28;20562;-76
2022/01/10 08:04:34;;;;;;;24.10;14.00;;;;;;;2.22;100.00;151937.44;4990496;28;20465;-75
2022/01/10 08:07:11;;;;;;;16.50;12.00;;;;;;;2.22;100.00;151937.44;4990235;28;20470;-75
2022/01/10 08:09:46;;;;;;;18.93;11.80;;;;;;;2.24;100.00;151941.25;4988976;28;20450;-75
2022/01/10 08:12:22;;;;;;;17.50;11.23;;;;;;;2.23;100.00;151938.66;4985185;28;20458;-75
2022/01/10 08:14:58;;;;;;;21.80;12.50;;;;;;;2.24;100.00;151941.25;4987163;28;20462;-75
2022/01/10 08:17:33;;;;;;;19.60;11.60;;;;;;;2.22;100.00;151937.44;4992034;28;20537;-75
2022/01/10 08:20:10;;;;;;;20.03;11.63;;;;;;;2.23;100.00;151939.97;4991722;28;20439;-75
2022/01/10 08:22:47;;;;;;;19.63;12.23;;;;;;;2.23;100.00;151939.97;4992405;28;20454;-75
2022/01/10 08:25:22;;;;;;;20.80;13.03;;;;;;;2.21;100.00;151934.84;4989555;28;20498;-75
2022/01/10 08:27:58;;;;;;;20.90;13.60;;;;;;;2.22;100.00;151937.44;4992794;28;20550;-76
2022/01/10 08:30:34;;;;;;;23.87;15.03;;;;;;;2.27;100.00;151950.28;4991042;28;20458;-76
2022/01/10 08:33:10;;;;;;;19.97;13.07;;;;;;;2.27;100.00;151950.28;4990197;28;20441;-76
2022/01/10 08:35:46;;;;;;;24.60;14.00;;;;;;;2.24;100.00;151941.25;4991225;28;21016;-76
2022/01/10 08:38:23;;;;;;;45.70;32.10;;;;;;;2.21;100.00;151934.84;4992253;28;20840;-76
2022/01/10 08:40:58;;;;;;;24.30;15.80;;;;;;;2.18;100.00;151927.13;4991709;28;20871;-76
2022/01/10 08:43:34;;;;;;;23.03;14.07;;;;;;;2.20;100.00;151930.94;4973088;28;20542;-76
2022/01/10 08:46:10;;;;;;;20.83;13.57;;;;;;;2.22;100.00;151937.44;4977830;28;20821;-76
2022/01/10 08:48:45;;;;;;;21.73;14.43;;;;;;;2.22;100.00;151936.13;4993043;28;20469;-76
2022/01/10 08:51:21;;;;;;;24.43;14.43;;;;;;;2.24;100.00;151942.56;4993387;28;20457;-76
2022/01/10 08:53:59;;;;;;;21.40;14.27;;;;;;;2.32;100.00;151963.13;4989150;28;20453;-76
2022/01/10 08:56:34;;;;;;;27.80;15.77;;;;;;;2.29;100.00;151955.41;4977268;28;20442;-76
2022/01/10 08:59:10;;;;;;;20.77;13.17;;;;;;;2.31;100.00;151959.25;4976100;28;20455;-76
2022/01/10 09:01:46;;;;;;;21.80;12.70;;;;;;;2.35;100.00;151970.84;5007367;28;20458;-76
2022/01/10 09:04:22;;;;;;;22.13;13.60;;;;;;;2.39;100.00;151979.81;4992752;28;20468;-76
2022/01/10 09:06:58;;;;;;;23.37;14.77;;;;;;;2.29;100.00;151955.41;4990089;28;20486;-76
2022/01/10 09:09:37;;;;;;;25.70;14.57;;;;;;;2.33;100.00;151965.66;4959794;28;20915;-76
2022/01/10 09:12:12;;;;;;;24.10;15.20;;;;;;;2.35;100.00;151970.84;4994194;28;20449;-76
2022/01/10 09:14:47;;;;;;;18.20;13.47;;;;;;;2.38;100.00;151978.53;4991844;28;20439;-77
2022/01/10 09:17:23;;;;;;;22.67;14.90;;;;;;;2.37;100.00;151974.69;4964341;28;20451;-76
2022/01/10 09:19:59;;;;;;;21.80;14.63;;;;;;;2.43;100.00;151990.13;4975487;28;20453;-76
2022/01/10 09:22:35;;;;;;;27.33;15.23;;;;;;;2.46;100.00;151999.09;4991997;28;20460;-76
2022/01/10 09:25:12;;;;;;;24.67;14.40;;;;;;;2.46;100.00;151997.84;4990551;28;20538;-76
2022/01/10 09:27:48;;;;;;;23.43;14.47;;;;;;;2.55;100.00;152020.97;4990135;28;20543;-76
2022/01/10 09:30:24;;;;;;;20.80;14.13;;;;;;;2.56;100.00;152022.28;4986385;28;20516;-76
2022/01/10 09:33:00;;;;;;;19.43;13.70;;;;;;;2.45;100.00;151996.56;4990073;28;20458;-76
2022/01/10 09:35:36;;;;;;;20.57;13.03;;;;;;;2.53;100.00;152015.84;4957225;28;20533;-76
2022/01/10 09:38:11;;;;;;;19.07;13.30;;;;;;;2.65;100.00;152046.69;4985506;28;20450;-75
2022/01/10 09:40:48;;;;;;;20.67;13.73;;;;;;;2.53;100.00;152015.84;4991914;28;20490;-75
2022/01/10 09:43:24;;;;;;;18.30;12.77;;;;;;;2.52;100.00;152011.97;4992177;28;20922;-75
2022/01/10 09:46:00;;;;;;;24.63;14.57;;;;;;;2.52;100.00;152013.25;4975921;28;20443;-76
2022/01/10 09:48:35;;;;;;;22.00;14.40;;;;;;;2.59;100.00;152030.00;4991753;28;20472;-76
2022/01/10 09:51:11;;;;;;;21.30;13.00;;;;;;;2.59;100.00;152030.00;4980871;28;20897;-76
2022/01/10 09:53:46;;;;;;;20.63;13.40;;;;;;;2.60;100.00;152032.53;4957512;28;20442;-76
2022/01/10 09:56:24;;;;;;;21.90;12.90;;;;;;;2.63;100.00;152040.25;4984305;28;20940;-75
2022/01/10 09:59:01;;;;;;;24.97;14.70;;;;;;;2.61;100.00;152035.13;5012466;28;20489;-75
2022/01/10 10:01:37;;;;;;;23.80;13.53;;;;;;;2.62;100.00;152038.97;4997409;28;20459;-78
2022/01/10 10:04:12;;;;;;;22.40;14.50;;;;;;;2.62;100.00;152037.72;4997577;28;20818;-77
2022/01/10 10:06:48;;;;;;;20.27;14.13;;;;;;;2.76;100.00;152075.00;5001810;28;20472;-77
2022/01/10 10:09:24;;;;;;;25.13;14.13;;;;;;;2.67;100.00;152050.56;4976449;28;20494;-76
2022/01/10 10:12:01;;;;;;;21.13;13.80;;;;;;;2.60;100.00;152032.53;4992142;28;20461;-76
2022/01/10 10:14:38;;;;;;;25.67;13.23;;;;;;;2.53;100.00;152014.56;4980087;28;20885;-76
2022/01/10 10:17:20;;;;;;;19.23;13.60;;;;;;;2.53;100.00;152015.84;4982605;28;20450;-77
2022/01/10 10:19:56;;;;;;;26.13;12.70;;;;;;;2.50;100.00;152008.13;4996252;28;20784;-77
2022/01/10 10:22:32;;;;;;;19.00;12.57;;;;;;;2.58;100.00;152027.41;5001827;28;20470;-76
2022/01/10 10:25:08;;;;;;;20.60;12.90;;;;;;;2.64;100.00;152042.84;4982632;28;20813;-77
2022/01/10 10:27:48;;;;;;;17.90;13.37;;;;;;;2.65;100.00;152045.44;4998630;28;20490;-77
2022/01/10 10:30:27;;;;;;;16.90;12.90;;;;;;;2.67;100.00;152050.56;4997142;28;20431;-77
2022/01/10 10:33:14;;;;;;;19.93;14.17;;;;;;;2.76;100.00;152073.72;4995232;28;20447;-76
2022/01/10 10:35:56;;;;;;;19.27;13.10;;;;;;;2.73;100.00;152065.97;4982690;28;20450;-76
2022/01/10 10:38:31;;;;;;;21.10;13.40;;;;;;;2.71;100.00;152060.84;4992527;28;20440;-76
2022/01/10 10:41:07;;;;;;;20.10;14.07;;;;;;;2.79;100.00;152081.44;4986461;28;20452;-76
2022/01/10 10:43:44;;;;;;;22.27;13.10;;;;;;;2.77;100.00;152076.28;4997539;28;20443;-76
2022/01/10 10:46:24;;;;;;;20.07;12.60;;;;;;;2.84;100.00;152094.28;4997064;28;20789;-76
2022/01/10 10:49:03;;;;;;;17.63;12.67;;;;;;;2.88;100.00;152105.91;4997602;28;20463;-76
2022/01/10 10:51:38;;;;;;;19.27;12.43;;;;;;;2.90;100.00;152109.75;4980631;28;20455;-76
2022/01/10 10:54:15;;;;;;;24.43;14.80;;;;;;;2.86;100.00;152099.47;4981940;28;20535;-76
2022/01/10 10:56:51;;;;;;;21.63;14.17;;;;;;;2.84;100.00;152094.28;5013572;28;20443;-76
2022/01/10 10:59:31;;;;;;;21.03;13.23;;;;;;;2.81;100.00;152086.56;4987990;28;20451;-76
2022/01/10 11:02:06;;;;;;;18.93;12.70;;;;;;;2.84;100.00;152094.28;4996775;28;20446;-76
2022/01/10 11:04:42;;;;;;;18.70;13.60;;;;;;;2.87;100.00;152103.31;4982252;28;20443;-77
2022/01/10 11:07:21;;;;;;;22.03;14.13;;;;;;;2.84;100.00;152094.28;4993795;28;20573;-76
2022/01/10 11:09:57;;;;;;;19.10;12.40;;;;;;;2.83;100.00;152093.00;4976330;28;20997;-76
2022/01/10 11:12:35;;;;;;;17.60;12.63;;;;;;;2.85;100.00;152096.88;4989102;28;20459;-76
2022/01/10 11:15:13;;;;;;;18.93;13.97;;;;;;;2.89;100.00;152108.44;4990865;28;20484;-76
2022/01/10 11:17:48;;;;;;;20.30;12.77;;;;;;;2.88;100.00;152105.91;4974520;28;20446;-76
2022/01/10 11:20:25;;;;;;;19.70;13.57;;;;;;;2.91;100.00;152112.34;4967270;28;20476;-76
2022/01/10 11:23:01;;;;;;;21.10;13.13;;;;;;;2.93;100.00;152117.47;4978563;28;20440;-76
2022/01/10 11:25:39;;;;;;;21.63;14.40;;;;;;;2.97;100.00;152127.75;4992783;28;20452;-76
2022/01/10 11:28:23;;;;;;;17.20;12.00;;;;;;;2.96;100.00;152125.19;4991790;28;20440;-76
2022/01/10 11:31:02;;;;;;;19.13;12.70;;;;;;;2.92;100.00;152114.88;4982895;28;20490;-77
2022/01/10 11:33:42;;;;;;;23.17;13.10;;;;;;;3.01;100.00;152138.06;4988740;28;20447;-76
2022/01/10 11:36:21;;;;;;;18.17;12.90;;;;;;;3.10;100.00;152161.19;4993851;28;20453;-76
2022/01/10 11:38:57;;;;;;;19.47;12.83;;;;;;;3.10;100.00;152159.94;4992797;28;20460;-76
2022/01/10 11:41:33;;;;;;;18.00;12.57;;;;;;;3.17;100.00;152179.22;5006025;28;20472;-75
2022/01/10 11:44:12;;;;;;;24.03;12.70;;;;;;;3.10;100.00;152159.94;4974169;28;20443;-75
2022/01/10 11:46:49;;;;;;;20.17;12.53;;;;;;;3.04;100.00;152145.78;4993738;28;20979;-75
2022/01/10 11:49:25;;;;;;;18.10;13.20;;;;;;;3.24;100.00;152197.22;4991115;28;20568;-76
2022/01/10 11:52:05;;;;;;;17.77;12.53;;;;;;;3.20;100.00;152186.97;4993090;28;20464;-76
2022/01/10 11:54:42;;;;;;;17.27;12.67;;;;;;;3.23;100.00;152194.63;4976951;28;20481;-76
2022/01/10 11:57:19;;;;;;;17.03;12.73;;;;;;;3.27;100.00;152203.66;4992331;28;20501;-76
2022/01/10 11:59:58;;;;;;;18.40;11.60;;;;;;;3.32;100.00;152217.81;4991039;28;20440;-76
2022/01/10 12:02:36;;;;;;;17.83;11.70;;;;;;;3.38;100.00;152233.28;4992284;28;20798;-76
2022/01/10 12:05:12;;;;;;;19.50;12.47;;;;;;;3.34;100.00;152222.97;4992502;28;20451;-76
2022/01/10 12:07:48;;;;;;;18.97;12.73;;;;;;;3.36;100.00;152226.84;4991576;28;20486;-76
2022/01/10 12:10:24;;;;;;;18.90;12.30;;;;;;;3.40;100.00;152238.41;4992435;28;20468;-76